Time;durP1;ratioP1;P1;durP2;ratioP2;P2;SDS_P1;SDS_P2;PMS_P1;PMS_P2;Temp;Humidity;BMP_temperature;BMP_pressure;BME280_temperature;BME280_humidity;BME280_pressure;Samples;Min_cycle;Max_cycle;Signal;HPM_P1;HPM_P2
2022/02/26 00:01:30;;;;;;;1999.90;709.90;;;4.60;99.90;;;;;;4936541;29;20478;-70
2022/02/26 00:03:58;;;;;;;1999.90;884.53;;;4.60;99.90;;;;;;4936589;29;20461;-70
2022/02/26 00:06:26;;;;;;;1999.90;999.90;;;4.50;99.90;;;;;;4944595;29;20841;-70
2022/02/26 00:08:56;;;;;;;1999.90;701.17;;;4.50;99.90;;;;;;4956030;28;20446;-70
2022/02/26 00:11:24;;;;;;;1999.90;658.83;;;4.50;99.90;;;;;;4955727;28;20508;-70
2022/02/26 00:13:52;;;;;;;1999.90;904.67;;;4.50;99.90;;;;;;4955808;29;20541;-70
2022/02/26 00:16:20;;;;;;;1999.90;701.87;;;4.50;99.90;;;;;;4955667;29;20990;-70
2022/02/26 00:18:48;;;;;;;1999.90;664.87;;;4.40;99.90;;;;;;4955735;29;20461;-70
2022/02/26 00:21:17;;;;;;;1999.90;725.40;;;4.40;99.90;;;;;;4954096;28;21021;-70
2022/02/26 00:23:45;;;;;;;1999.90;746.50;;;4.40;99.90;;;;;;4956131;29;20509;-70
2022/02/26 00:26:14;;;;;;;1999.90;733.77;;;4.40;99.90;;;;;;4954863;29;20455;-70
2022/02/26 00:28:42;;;;;;;1999.90;737.37;;;4.30;99.90;;;;;;4954058;28;20509;-70
2022/02/26 00:31:10;;;;;;;1999.90;444.70;;;4.30;99.90;;;;;;4955497;29;20447;-70
2022/02/26 00:33:39;;;;;;;1999.90;719.30;;;4.30;99.90;;;;;;4955436;29;20446;-70
2022/02/26 00:36:07;;;;;;;1999.90;727.93;;;4.30;99.90;;;;;;4955477;29;20532;-70
2022/02/26 00:38:35;;;;;;;1999.90;993.27;;;4.20;99.90;;;;;;4955117;28;20457;-70
2022/02/26 00:41:03;;;;;;;1999.90;673.47;;;4.20;99.90;;;;;;4954853;29;20451;-70
2022/02/26 00:43:32;;;;;;;1808.37;511.97;;;4.20;99.90;;;;;;4955389;29;20856;-70
2022/02/26 00:46:01;;;;;;;1999.73;600.77;;;4.20;99.90;;;;;;4955389;28;20457;-70
2022/02/26 00:51:11;;;;;;;1922.13;577.57;;;4.20;99.90;;;;;;4954677;28;20966;-70
2022/02/26 00:53:39;;;;;;;1999.90;999.90;;;4.20;99.90;;;;;;4955043;29;20448;-70
2022/02/26 00:56:07;;;;;;;1999.90;889.30;;;4.10;99.90;;;;;;4954909;28;20454;-70
2022/02/26 00:58:36;;;;;;;1999.90;999.90;;;4.20;99.90;;;;;;4955514;29;20435;-70
2022/02/26 01:01:04;;;;;;;1999.90;999.90;;;4.20;99.90;;;;;;4953659;29;20447;-70
2022/02/26 01:03:33;;;;;;;1999.90;999.90;;;4.20;99.90;;;;;;4955427;28;20471;-70
2022/02/26 01:06:01;;;;;;;1999.90;748.50;;;4.20;99.90;;;;;;4954471;29;20955;-70
2022/02/26 01:08:29;;;;;;;1999.90;697.67;;;4.20;99.90;;;;;;4953556;29;20474;-70
2022/02/26 01:10:57;;;;;;;1999.90;999.90;;;4.20;99.90;;;;;;4954738;28;20784;-70
2022/02/26 01:13:25;;;;;;;1999.90;802.83;;;4.20;99.90;;;;;;4957602;28;21007;-70
2022/02/26 01:15:56;;;;;;;1999.90;813.97;;;4.20;99.90;;;;;;4957429;29;20446;-70
2022/02/26 01:18:25;;;;;;;1999.90;993.57;;;4.20;99.90;;;;;;4958689;29;20477;-70
2022/02/26 01:20:53;;;;;;;1999.90;707.67;;;4.20;99.90;;;;;;4958651;29;20956;-70
2022/02/26 01:23:21;;;;;;;1999.90;999.90;;;4.20;99.90;;;;;;4959365;29;20453;-70
2022/02/26 01:25:49;;;;;;;1999.90;999.90;;;4.20;99.90;;;;;;4956871;29;20463;-70
2022/02/26 01:28:17;;;;;;;1999.90;999.90;;;4.20;99.90;;;;;;4958676;28;20512;-70
2022/02/26 01:30:45;;;;;;;1999.90;842.90;;;4.20;99.90;;;;;;4958357;28;20452;-70
2022/02/26 01:33:16;;;;;;;1999.90;999.90;;;4.20;99.90;;;;;;4958484;28;21010;-70
2022/02/26 01:35:45;;;;;;;1999.90;734.83;;;4.20;99.90;;;;;;4958969;28;20521;-70
2022/02/26 01:38:13;;;;;;;1999.90;995.17;;;4.20;99.90;;;;;;4958367;28;20439;-70
2022/02/26 01:40:41;;;;;;;1999.90;681.80;;;4.20;99.90;;;;;;4957150;29;20544;-70
2022/02/26 01:43:10;;;;;;;1999.90;999.90;;;4.10;99.90;;;;;;4958829;28;20469;-70
2022/02/26 01:45:38;;;;;;;1999.90;999.90;;;4.10;99.90;;;;;;4957841;29;20890;-70
2022/02/26 01:48:06;;;;;;;1999.90;999.90;;;4.10;99.90;;;;;;4956830;29;20474;-70
2022/02/26 01:50:36;;;;;;;1999.90;686.93;;;4.10;99.90;;;;;;4958232;28;20450;-70
2022/02/26 01:53:07;;;;;;;1999.90;999.90;;;4.10;99.90;;;;;;4958579;29;20943;-70
2022/02/26 01:55:35;;;;;;;1999.90;999.90;;;4.10;99.90;;;;;;4958216;29;20481;-70
2022/02/26 01:58:04;;;;;;;1999.90;999.90;;;4.10;99.90;;;;;;4958256;29;20461;-70
2022/02/26 02:00:32;;;;;;;1999.90;737.87;;;4.10;99.90;;;;;;4958138;29;20485;-70
2022/02/26 02:03:01;;;;;;;1999.90;674.77;;;4.00;99.90;;;;;;4957828;28;20461;-70
2022/02/26 02:05:31;;;;;;;1999.90;999.90;;;4.00;99.90;;;;;;4957659;29;20449;-70
2022/02/26 02:08:01;;;;;;;1999.90;999.90;;;4.00;99.90;;;;;;4956553;29;20550;-70
2022/02/26 02:10:35;;;;;;;1999.90;999.90;;;4.00;99.90;;;;;;4958501;29;20431;-70
2022/02/26 02:13:03;;;;;;;1952.03;578.30;;;4.00;99.90;;;;;;4958180;28;20463;-70
2022/02/26 02:15:33;;;;;;;1999.90;864.17;;;4.00;99.90;;;;;;4957948;28;20441;-70
2022/02/26 02:18:02;;;;;;;1999.90;764.53;;;3.90;99.90;;;;;;4956495;29;20542;-70
2022/02/26 02:20:30;;;;;;;1945.70;571.30;;;3.90;99.90;;;;;;4957890;29;20442;-70
2022/02/26 02:22:59;;;;;;;1913.13;498.57;;;3.90;99.90;;;;;;4957666;28;20561;-70
2022/02/26 02:25:30;;;;;;;1999.90;784.20;;;3.90;99.90;;;;;;4956173;29;20982;-70
2022/02/26 02:28:00;;;;;;;1999.90;865.27;;;3.90;99.90;;;;;;4955847;29;20501;-70
2022/02/26 02:30:29;;;;;;;1999.90;999.90;;;3.90;99.90;;;;;;4957950;28;20453;-70
2022/02/26 02:32:59;;;;;;;1999.90;985.40;;;3.90;99.90;;;;;;4958179;28;20462;-70
2022/02/26 02:35:30;;;;;;;1975.93;471.67;;;3.90;99.90;;;;;;4957593;28;20812;-70
2022/02/26 02:38:02;;;;;;;1999.90;895.50;;;3.90;99.90;;;;;;4957483;28;20533;-70
2022/02/26 02:40:32;;;;;;;1999.90;999.90;;;3.90;99.90;;;;;;4957576;28;20458;-70
2022/02/26 02:43:01;;;;;;;1999.90;999.90;;;3.90;99.90;;;;;;4957179;28;20466;-70
2022/02/26 02:45:29;;;;;;;1999.90;955.30;;;3.90;99.90;;;;;;4957187;28;20502;-70
2022/02/26 02:47:57;;;;;;;1999.90;699.47;;;3.90;99.90;;;;;;4955466;29;20470;-70
2022/02/26 02:50:26;;;;;;;1999.90;999.90;;;3.90;99.90;;;;;;4957481;28;20541;-70
2022/02/26 02:52:54;;;;;;;1999.90;535.93;;;3.90;99.90;;;;;;4955595;29;20466;-71
2022/02/26 02:55:24;;;;;;;1999.90;956.97;;;3.90;99.90;;;;;;4957206;29;20583;-70
2022/02/26 02:57:55;;;;;;;1999.90;500.73;;;3.90;99.90;;;;;;4957051;29;20441;-70
2022/02/26 03:00:25;;;;;;;1745.37;346.93;;;3.80;99.90;;;;;;4957519;29;20422;-71
2022/02/26 03:02:54;;;;;;;1999.90;527.77;;;3.80;99.90;;;;;;4956791;28;20477;-70
2022/02/26 03:05:23;;;;;;;1999.90;981.50;;;3.80;99.90;;;;;;4956764;29;20445;-70
2022/02/26 03:07:52;;;;;;;1914.03;408.50;;;3.80;99.90;;;;;;4955095;29;20480;-70
2022/02/26 03:10:20;;;;;;;1999.90;489.53;;;3.80;99.90;;;;;;4956626;29;20446;-70
2022/02/26 03:12:52;;;;;;;1999.90;626.93;;;3.70;99.90;;;;;;4955486;28;20470;-70
2022/02/26 03:15:22;;;;;;;1999.90;872.80;;;3.70;99.90;;;;;;4955466;28;20519;-70
2022/02/26 03:17:50;;;;;;;1999.90;463.07;;;3.70;99.90;;;;;;4955351;29;20889;-70
2022/02/26 03:20:19;;;;;;;1999.90;959.27;;;3.70;99.90;;;;;;4956454;28;20453;-70
2022/02/26 03:22:47;;;;;;;1999.90;557.83;;;3.60;99.90;;;;;;4956329;29;21046;-70
2022/02/26 03:25:17;;;;;;;1694.50;389.40;;;3.60;99.90;;;;;;4956750;28;20478;-70
2022/02/26 03:27:45;;;;;;;1597.60;373.73;;;3.60;99.90;;;;;;4956617;29;20447;-70
2022/02/26 03:30:14;;;;;;;1509.03;330.47;;;3.50;99.90;;;;;;4956340;29;20796;-70
2022/02/26 03:32:43;;;;;;;1713.13;413.50;;;3.50;99.90;;;;;;4955879;28;20479;-70
2022/02/26 03:35:12;;;;;;;1695.67;377.70;;;3.50;99.90;;;;;;4955923;28;20456;-70
2022/02/26 03:37:40;;;;;;;1543.40;343.47;;;3.40;99.90;;;;;;4956313;29;20529;-70
2022/02/26 03:40:10;;;;;;;1943.73;549.83;;;3.40;99.90;;;;;;4956339;29;20452;-70
2022/02/26 03:42:38;;;;;;;1974.13;512.30;;;3.40;99.90;;;;;;4954936;28;20481;-70
2022/02/26 03:45:10;;;;;;;1978.43;546.57;;;3.40;99.90;;;;;;4956129;28;20534;-70
2022/02/26 03:47:41;;;;;;;1999.90;522.17;;;3.40;99.90;;;;;;4956378;29;20454;-70
2022/02/26 03:50:12;;;;;;;1146.17;266.73;;;3.40;99.90;;;;;;4956393;28;20830;-70
2022/02/26 03:52:41;;;;;;;1936.43;473.43;;;3.30;99.90;;;;;;4956492;28;20473;-70
2022/02/26 03:55:10;;;;;;;1994.40;529.47;;;3.30;99.90;;;;;;4954871;29;20459;-70
2022/02/26 03:57:44;;;;;;;1259.77;292.63;;;3.30;99.90;;;;;;4956656;29;20438;-70
2022/02/26 04:00:14;;;;;;;1696.70;348.27;;;3.30;99.90;;;;;;4956433;29;20482;-70
2022/02/26 04:02:45;;;;;;;1999.90;776.13;;;3.30;99.90;;;;;;4955266;28;20478;-70
2022/02/26 04:05:13;;;;;;;1411.83;333.03;;;3.20;99.90;;;;;;4956689;28;20752;-70
2022/02/26 04:07:44;;;;;;;1553.53;403.93;;;3.20;99.90;;;;;;4955817;29;20453;-70
2022/02/26 04:10:13;;;;;;;1746.00;409.43;;;3.20;99.90;;;;;;4955696;29;20474;-70
2022/02/26 04:12:41;;;;;;;1999.90;661.77;;;3.20;99.90;;;;;;4956655;28;20494;-70
2022/02/26 04:15:10;;;;;;;1687.90;405.93;;;3.20;99.90;;;;;;4956528;29;20468;-70
2022/02/26 04:17:38;;;;;;;1999.90;613.07;;;3.20;99.90;;;;;;4955342;29;20465;-70
2022/02/26 04:20:09;;;;;;;1873.47;485.20;;;3.20;99.90;;;;;;4956310;29;20438;-70
2022/02/26 04:22:37;;;;;;;1608.97;406.40;;;3.10;99.90;;;;;;4956332;29;20454;-70
2022/02/26 04:25:06;;;;;;;1999.90;479.67;;;3.10;99.90;;;;;;4954883;29;20451;-70
2022/02/26 04:27:34;;;;;;;1780.93;433.07;;;3.10;99.90;;;;;;4955644;28;20476;-70
2022/02/26 04:30:04;;;;;;;1999.90;690.00;;;3.10;99.90;;;;;;4955381;29;20493;-70
2022/02/26 04:32:41;;;;;;;1999.90;618.77;;;3.10;99.90;;;;;;4940294;29;20466;-70
2022/02/26 04:35:12;;;;;;;1999.90;530.60;;;3.10;99.90;;;;;;4940449;29;20497;-70
2022/02/26 04:37:41;;;;;;;1678.17;356.50;;;3.10;99.90;;;;;;4939871;29;20451;-70
2022/02/26 04:40:10;;;;;;;1479.70;360.60;;;3.10;99.90;;;;;;4939006;29;20449;-70
2022/02/26 04:42:39;;;;;;;1327.17;279.27;;;3.10;99.90;;;;;;4936060;29;20561;-70
2022/02/26 04:45:09;;;;;;;1999.90;533.60;;;3.10;99.90;;;;;;4936052;29;20443;-70
2022/02/26 04:47:37;;;;;;;1489.20;320.33;;;3.10;99.90;;;;;;4941950;29;20467;-70
2022/02/26 04:50:07;;;;;;;1370.63;267.17;;;3.10;99.90;;;;;;4935847;29;20566;-70
2022/02/26 04:52:37;;;;;;;1280.70;276.50;;;3.10;99.90;;;;;;4936235;29;20454;-70
2022/02/26 04:55:06;;;;;;;1720.20;398.37;;;3.00;99.90;;;;;;4935916;28;20460;-70
2022/02/26 04:57:34;;;;;;;1726.30;414.17;;;3.00;99.90;;;;;;4939556;29;20425;-70
2022/02/26 05:00:05;;;;;;;1803.70;424.70;;;3.00;99.90;;;;;;4936041;29;20439;-70
2022/02/26 05:02:36;;;;;;;1100.13;238.50;;;3.00;99.90;;;;;;4950658;28;20474;-70
2022/02/26 05:05:05;;;;;;;1293.33;290.47;;;3.00;99.90;;;;;;4955198;28;20492;-70
2022/02/26 05:07:33;;;;;;;1411.17;259.90;;;3.00;99.90;;;;;;4954872;28;20450;-70
2022/02/26 05:10:03;;;;;;;1593.60;350.00;;;3.00;99.90;;;;;;4955097;29;20470;-70
2022/02/26 05:12:31;;;;;;;998.07;218.63;;;3.00;99.90;;;;;;4954829;28;20474;-70
2022/02/26 05:15:00;;;;;;;1127.40;217.03;;;2.90;99.90;;;;;;4955390;29;20815;-70
2022/02/26 05:17:28;;;;;;;1999.90;526.20;;;2.90;99.90;;;;;;4953497;29;20454;-70
2022/02/26 05:19:56;;;;;;;1826.83;430.40;;;2.90;99.90;;;;;;4953537;28;20453;-70
2022/02/26 05:22:24;;;;;;;912.03;182.97;;;2.80;99.90;;;;;;4954624;28;20472;-69
2022/02/26 05:24:52;;;;;;;1327.23;303.37;;;2.80;99.90;;;;;;4953611;29;20459;-70
2022/02/26 05:27:21;;;;;;;1999.90;585.93;;;2.80;99.90;;;;;;4954558;29;20460;-70
2022/02/26 05:29:49;;;;;;;1999.90;547.63;;;2.80;99.90;;;;;;4954682;29;20480;-70
2022/02/26 05:32:18;;;;;;;1109.03;277.27;;;2.80;99.90;;;;;;4954555;29;20470;-70
2022/02/26 05:34:46;;;;;;;1266.10;308.87;;;2.70;99.90;;;;;;4954757;29;20442;-70
2022/02/26 05:37:14;;;;;;;949.00;202.90;;;2.70;99.90;;;;;;4955019;29;20540;-70
2022/02/26 05:39:42;;;;;;;1745.63;440.17;;;2.70;99.90;;;;;;4954688;29;20450;-70
2022/02/26 05:42:11;;;;;;;1130.03;238.37;;;2.70;99.90;;;;;;4954889;29;20526;-70
2022/02/26 05:44:40;;;;;;;906.37;202.83;;;2.60;99.90;;;;;;4954805;29;20930;-70
2022/02/26 05:47:08;;;;;;;928.47;209.87;;;2.60;99.90;;;;;;4954533;28;20450;-70
2022/02/26 05:49:37;;;;;;;1162.33;268.17;;;2.60;99.90;;;;;;4954319;29;20481;-70
2022/02/26 05:52:06;;;;;;;1054.33;260.23;;;2.60;99.90;;;;;;4954708;28;20467;-70
2022/02/26 05:54:35;;;;;;;1390.97;338.20;;;2.60;99.90;;;;;;4955073;28;20554;-70
2022/02/26 05:57:04;;;;;;;1999.90;477.03;;;2.50;99.90;;;;;;4954437;29;20473;-70
2022/02/26 05:59:32;;;;;;;1486.07;345.37;;;2.50;99.90;;;;;;4957225;28;20434;-70
2022/02/26 06:02:02;;;;;;;1009.47;222.60;;;2.50;99.90;;;;;;4958436;28;20475;-70
2022/02/26 06:04:30;;;;;;;1490.77;363.47;;;2.50;99.90;;;;;;4956688;29;20549;-70
2022/02/26 06:06:59;;;;;;;988.77;200.17;;;2.50;99.90;;;;;;4957727;28;20832;-70
2022/02/26 06:09:27;;;;;;;1999.90;456.80;;;2.50;99.90;;;;;;4956145;29;20975;-70
2022/02/26 06:11:55;;;;;;;1608.40;362.43;;;2.50;99.90;;;;;;4956384;28;20530;-70
2022/02/26 06:14:23;;;;;;;1323.77;295.37;;;2.50;99.90;;;;;;4958045;29;20850;-70
2022/02/26 06:16:51;;;;;;;1999.90;519.20;;;2.50;99.90;;;;;;4956719;28;20442;-70
2022/02/26 06:19:23;;;;;;;1031.50;230.53;;;2.40;99.90;;;;;;4957949;29;20854;-70
2022/02/26 06:21:51;;;;;;;1351.20;310.60;;;2.40;99.90;;;;;;4957474;28;20464;-70
2022/02/26 06:24:19;;;;;;;1440.47;312.20;;;2.40;99.90;;;;;;4956327;29;20469;-70
2022/02/26 06:26:47;;;;;;;1298.40;271.00;;;2.40;99.90;;;;;;4957510;28;20443;-70
2022/02/26 06:29:15;;;;;;;1233.20;288.47;;;2.40;99.90;;;;;;4956289;28;20465;-70
2022/02/26 06:31:43;;;;;;;1992.70;432.47;;;2.40;99.90;;;;;;4956579;28;20835;-70
2022/02/26 06:34:11;;;;;;;1999.90;534.60;;;2.40;99.90;;;;;;4957389;29;20449;-70
2022/02/26 06:36:41;;;;;;;1466.83;363.80;;;2.40;99.90;;;;;;4955967;29;20446;-70
2022/02/26 06:39:09;;;;;;;1826.90;425.27;;;2.50;99.90;;;;;;4956027;29;20464;-70
2022/02/26 06:41:38;;;;;;;1577.87;382.70;;;2.50;99.90;;;;;;4956237;28;20564;-70
2022/02/26 06:44:06;;;;;;;1788.20;408.70;;;2.50;99.90;;;;;;4955949;29;20463;-70
2022/02/26 06:46:35;;;;;;;1999.90;708.03;;;2.50;99.90;;;;;;4957163;29;20505;-70
2022/02/26 06:49:03;;;;;;;1905.37;459.13;;;2.50;99.90;;;;;;4957902;29;20452;-70
2022/02/26 06:51:31;;;;;;;1696.07;400.57;;;2.50;99.90;;;;;;4956936;28;20483;-70
2022/02/26 06:54:01;;;;;;;1416.37;351.10;;;2.50;99.90;;;;;;4957345;28;20468;-70
2022/02/26 06:56:33;;;;;;;1663.53;356.17;;;2.60;99.90;;;;;;4957871;29;20454;-70
2022/02/26 06:59:01;;;;;;;1474.73;318.20;;;2.60;99.90;;;;;;4957150;29;20893;-70
2022/02/26 07:01:29;;;;;;;1999.90;455.13;;;2.60;99.90;;;;;;4955155;29;20470;-70
2022/02/26 07:03:57;;;;;;;1999.90;605.17;;;2.60;99.90;;;;;;4957000;29;20446;-70
2022/02/26 07:06:27;;;;;;;1966.37;522.33;;;2.60;99.90;;;;;;4956889;29;20450;-70
2022/02/26 07:08:55;;;;;;;1637.83;369.63;;;2.70;99.90;;;;;;4957063;28;20435;-70
2022/02/26 07:11:25;;;;;;;1716.00;422.93;;;2.70;99.90;;;;;;4952729;28;20498;-70
2022/02/26 07:13:53;;;;;;;1999.90;474.37;;;2.70;99.90;;;;;;4936245;29;20451;-70
2022/02/26 07:16:21;;;;;;;1973.33;544.13;;;2.70;99.90;;;;;;4937751;29;20541;-70
2022/02/26 07:18:49;;;;;;;1950.03;483.17;;;2.70;99.90;;;;;;4937404;29;20440;-70
2022/02/26 07:21:17;;;;;;;1751.80;440.00;;;2.70;99.90;;;;;;4952238;28;20470;-70
2022/02/26 07:23:46;;;;;;;1897.60;513.07;;;2.80;99.90;;;;;;4956488;29;20476;-70
2022/02/26 07:26:14;;;;;;;1999.90;583.30;;;2.90;99.90;;;;;;4956749;28;20952;-70
2022/02/26 07:28:43;;;;;;;1999.90;703.13;;;2.90;99.90;;;;;;4955096;29;20873;-70
2022/02/26 07:31:11;;;;;;;1999.90;569.97;;;3.00;99.90;;;;;;4956117;28;20477;-70
2022/02/26 07:33:39;;;;;;;1999.90;747.77;;;3.00;99.90;;;;;;4956568;29;20447;-70
2022/02/26 07:36:08;;;;;;;1999.90;650.73;;;3.10;99.90;;;;;;4956177;29;20489;-70
2022/02/26 07:38:37;;;;;;;1999.90;603.63;;;3.10;99.90;;;;;;4956206;28;20448;-70
2022/02/26 07:41:06;;;;;;;1999.90;677.83;;;3.20;99.90;;;;;;4956072;28;20450;-70
2022/02/26 07:43:34;;;;;;;1963.80;726.80;;;3.20;99.90;;;;;;4956364;29;20944;-70
2022/02/26 07:46:04;;;;;;;1999.90;854.47;;;3.30;99.90;;;;;;4956332;29;20998;-70
2022/02/26 07:48:33;;;;;;;1999.90;881.83;;;3.40;99.90;;;;;;4954786;28;20999;-70
2022/02/26 07:51:01;;;;;;;1990.67;852.87;;;3.50;99.90;;;;;;4956014;29;20481;-70
2022/02/26 07:53:29;;;;;;;1999.90;833.33;;;3.50;99.90;;;;;;4953637;29;20455;-70
2022/02/26 07:55:58;;;;;;;1999.90;869.53;;;3.60;99.90;;;;;;4955864;29;20493;-70
2022/02/26 07:58:27;;;;;;;1999.90;944.47;;;3.70;99.90;;;;;;4954555;29;20446;-70
2022/02/26 08:00:55;;;;;;;1602.93;661.43;;;3.70;99.90;;;;;;4955794;29;20445;-70
2022/02/26 08:03:25;;;;;;;1999.90;887.33;;;3.80;99.90;;;;;;4955844;29;20524;-70
2022/02/26 08:05:53;;;;;;;1999.90;835.10;;;3.90;99.90;;;;;;4955927;28;20494;-70
2022/02/26 08:08:21;;;;;;;1998.13;770.57;;;4.00;99.90;;;;;;4954437;29;20458;-71
2022/02/26 08:10:50;;;;;;;1999.90;844.53;;;4.10;99.90;;;;;;4955801;29;20484;-71
2022/02/26 08:13:19;;;;;;;1999.90;774.90;;;4.30;99.90;;;;;;4955823;28;20472;-71
2022/02/26 08:15:47;;;;;;;1919.13;704.13;;;4.40;99.90;;;;;;4956106;29;20478;-71
2022/02/26 08:18:15;;;;;;;598.83;190.13;;;4.50;99.90;;;;;;4955739;29;20434;-71
2022/02/26 08:20:45;;;;;;;796.83;338.57;;;4.60;99.90;;;;;;4953731;28;20457;-71
2022/02/26 08:23:13;;;;;;;1290.87;449.60;;;4.70;99.90;;;;;;4953470;29;20470;-70
2022/02/26 08:25:41;;;;;;;775.70;260.20;;;4.90;99.90;;;;;;4954151;29;20548;-71
2022/02/26 08:28:09;;;;;;;494.03;187.27;;;5.00;99.90;;;;;;4954035;29;20825;-71
2022/02/26 08:30:37;;;;;;;340.80;101.67;;;5.10;99.90;;;;;;4955310;29;20834;-71
2022/02/26 08:33:06;;;;;;;303.90;66.17;;;5.20;99.90;;;;;;4953967;28;20470;-71
2022/02/26 08:35:34;;;;;;;338.93;65.47;;;5.30;99.90;;;;;;4955218;28;20806;-71
2022/02/26 08:38:04;;;;;;;369.07;77.40;;;5.40;99.90;;;;;;4955166;29;20525;-72
2022/02/26 08:40:33;;;;;;;362.47;80.53;;;5.50;99.90;;;;;;4955037;28;21053;-71
2022/02/26 08:43:02;;;;;;;321.53;64.40;;;5.50;99.90;;;;;;4954274;29;20478;-72
2022/02/26 08:45:35;;;;;;;366.20;78.37;;;5.60;99.90;;;;;;4955372;29;20437;-71
2022/02/26 08:48:04;;;;;;;439.03;90.97;;;5.70;99.90;;;;;;4953817;29;20447;-71
2022/02/26 08:50:32;;;;;;;363.40;56.47;;;5.70;99.90;;;;;;4953883;29;20798;-71
2022/02/26 08:53:00;;;;;;;361.10;77.20;;;5.70;99.90;;;;;;4953600;29;20909;-72
2022/02/26 08:55:32;;;;;;;367.17;67.93;;;5.70;99.90;;;;;;4954891;28;20477;-71
2022/02/26 08:58:00;;;;;;;392.50;68.17;;;5.80;99.90;;;;;;4955249;28;20858;-72
2022/02/26 09:00:29;;;;;;;358.53;70.40;;;5.80;99.90;;;;;;4953607;28;20490;-71
2022/02/26 09:02:58;;;;;;;354.90;79.00;;;5.80;99.90;;;;;;4954740;28;20454;-71
2022/02/26 09:05:27;;;;;;;403.10;74.30;;;5.80;99.90;;;;;;4954203;29;20446;-72
2022/02/26 09:07:55;;;;;;;429.00;90.57;;;5.80;99.90;;;;;;4953538;29;20541;-72
2022/02/26 09:10:23;;;;;;;503.13;80.63;;;5.90;99.90;;;;;;4953344;28;20538;-71
2022/02/26 09:12:54;;;;;;;369.87;73.13;;;5.90;99.90;;;;;;4954583;28;21045;-71
2022/02/26 09:15:22;;;;;;;350.53;72.53;;;5.90;99.90;;;;;;4954654;28;20493;-71
2022/02/26 09:17:50;;;;;;;377.70;83.93;;;6.00;99.90;;;;;;4954714;29;20446;-72
2022/02/26 09:20:18;;;;;;;355.77;83.43;;;6.00;99.90;;;;;;4954746;28;20437;-71
2022/02/26 09:22:46;;;;;;;317.57;60.23;;;6.00;99.90;;;;;;4954644;29;20546;-72
2022/02/26 09:25:15;;;;;;;350.90;82.07;;;6.00;99.90;;;;;;4953138;29;20486;-71
2022/02/26 09:27:44;;;;;;;373.80;85.47;;;6.10;99.90;;;;;;4954724;28;20452;-71
2022/02/26 09:30:17;;;;;;;425.33;73.00;;;6.10;99.90;;;;;;4949619;29;20462;-71
2022/02/26 09:32:47;;;;;;;379.83;81.13;;;6.10;99.90;;;;;;4954470;28;20500;-72
2022/02/26 09:35:16;;;;;;;342.93;68.30;;;6.20;99.90;;;;;;4958383;29;20446;-71
2022/02/26 09:37:44;;;;;;;363.77;71.23;;;6.20;99.90;;;;;;4958642;28;20875;-72
2022/02/26 09:40:13;;;;;;;442.33;78.93;;;6.30;99.90;;;;;;4956994;28;20584;-72
2022/02/26 09:42:41;;;;;;;406.87;90.77;;;6.30;99.90;;;;;;4958148;28;20859;-72
2022/02/26 09:45:11;;;;;;;362.63;73.00;;;6.40;99.90;;;;;;4958205;29;20818;-72
2022/02/26 09:47:42;;;;;;;367.83;69.73;;;6.40;99.90;;;;;;4958364;28;20980;-72
2022/02/26 09:50:11;;;;;;;385.03;79.23;;;6.40;99.90;;;;;;4958780;29;20457;-72
2022/02/26 09:52:42;;;;;;;409.37;79.80;;;6.50;99.90;;;;;;4950557;28;20921;-72
2022/02/26 09:55:11;;;;;;;413.07;80.20;;;6.50;99.90;;;;;;4956667;29;20465;-72
2022/02/26 09:57:39;;;;;;;465.13;84.77;;;6.50;99.90;;;;;;4958345;29;20427;-71
2022/02/26 10:00:09;;;;;;;455.40;87.13;;;6.60;99.90;;;;;;4957951;28;20950;-71
2022/02/26 10:02:39;;;;;;;323.37;70.20;;;6.60;99.90;;;;;;4958244;29;20482;-72
2022/02/26 10:05:11;;;;;;;571.13;84.43;;;6.70;99.90;;;;;;4956706;29;20458;-72
2022/02/26 10:07:41;;;;;;;438.30;73.50;;;6.60;99.90;;;;;;4958223;28;20483;-72
2022/02/26 10:10:15;;;;;;;462.37;86.30;;;6.70;99.90;;;;;;4957809;29;20445;-72
2022/02/26 10:12:44;;;;;;;419.37;71.07;;;6.70;99.90;;;;;;4957674;28;20498;-72
2022/02/26 10:15:25;;;;;;;444.87;89.47;;;6.70;99.90;;;;;;4956560;28;20532;-72
2022/02/26 10:18:02;;;;;;;502.57;103.43;;;6.80;99.90;;;;;;4957874;28;20523;-72
2022/02/26 10:20:33;;;;;;;472.50;85.73;;;6.80;99.90;;;;;;4956447;28;20547;-72
2022/02/26 10:23:01;;;;;;;513.90;97.70;;;6.70;99.90;;;;;;4957721;28;20567;-72
2022/02/26 10:25:31;;;;;;;526.00;93.83;;;6.80;99.90;;;;;;4955807;28;20467;-72
2022/02/26 10:28:02;;;;;;;533.80;86.33;;;6.80;99.90;;;;;;4957495;29;20444;-72
2022/02/26 10:30:34;;;;;;;570.00;80.37;;;6.90;99.90;;;;;;4957509;29;20434;-71
2022/02/26 10:33:11;;;;;;;536.10;95.63;;;6.90;99.90;;;;;;4957259;28;20487;-73
2022/02/26 10:35:46;;;;;;;451.03;92.37;;;7.00;99.90;;;;;;4956111;29;20445;-72
2022/02/26 10:38:20;;;;;;;487.50;96.13;;;7.00;99.90;;;;;;4957622;28;20466;-72
2022/02/26 10:40:54;;;;;;;360.87;101.63;;;7.10;99.90;;;;;;4957797;29;20442;-72
2022/02/26 10:43:47;;;;;;;194.57;50.60;;;7.10;99.90;;;;;;4957449;28;20876;-72
2022/02/26 10:46:21;;;;;;;215.57;65.00;;;7.20;99.90;;;;;;4956723;29;20452;-72
2022/02/26 10:48:52;;;;;;;417.47;133.40;;;7.20;99.90;;;;;;4957355;29;20858;-72
2022/02/26 10:51:24;;;;;;;423.53;132.43;;;7.30;99.90;;;;;;4957216;28;20506;-71
2022/02/26 10:53:53;;;;;;;469.77;141.13;;;7.30;99.90;;;;;;4957353;28;20438;-72
2022/02/26 10:56:30;;;;;;;146.70;62.60;;;7.30;99.90;;;;;;4957131;29;20492;-72
2022/02/26 10:58:59;;;;;;;357.67;125.03;;;7.40;99.90;;;;;;4957466;29;20476;-72
2022/02/26 11:01:27;;;;;;;460.30;146.13;;;7.40;99.90;;;;;;4955543;28;20476;-72
2022/02/26 11:03:56;;;;;;;185.63;64.50;;;7.50;99.90;;;;;;4956898;29;20477;-72
2022/02/26 11:06:27;;;;;;;496.87;163.80;;;7.50;99.90;;;;;;4955481;28;20543;-72
2022/02/26 11:08:56;;;;;;;278.37;89.03;;;7.50;99.90;;;;;;4956841;29;20477;-72
2022/02/26 11:11:25;;;;;;;38.10;21.43;;;7.50;99.90;;;;;;4955496;28;20489;-72
2022/02/26 11:13:55;;;;;;;391.70;104.27;;;7.60;99.90;;;;;;4956684;28;20507;-72
2022/02/26 11:16:24;;;;;;;189.53;92.67;;;7.70;99.90;;;;;;4956860;28;20441;-71
2022/02/26 11:18:55;;;;;;;260.03;88.70;;;7.80;99.90;;;;;;4956800;28;20478;-71
2022/02/26 11:21:26;;;;;;;172.70;76.73;;;7.80;99.90;;;;;;4955866;28;20461;-72
2022/02/26 11:23:55;;;;;;;424.50;116.53;;;7.90;99.90;;;;;;4956714;29;20477;-71
2022/02/26 11:26:24;;;;;;;172.80;100.47;;;7.90;99.90;;;;;;4955188;29;20452;-71
2022/02/26 11:28:58;;;;;;;329.87;146.57;;;8.00;99.90;;;;;;4956451;29;20818;-72
2022/02/26 11:31:28;;;;;;;1096.70;398.33;;;7.90;99.90;;;;;;4956639;29;20454;-72
2022/02/26 11:33:57;;;;;;;495.80;214.30;;;7.90;99.90;;;;;;4956600;28;20469;-71
2022/02/26 11:36:47;;;;;;;413.30;199.00;;;7.90;99.90;;;;;;4956555;29;20932;-71
2022/02/26 11:39:23;;;;;;;554.40;287.80;;;7.90;99.90;;;;;;4956121;28;20437;-71
2022/02/26 11:41:51;;;;;;;575.47;281.23;;;7.90;99.90;;;;;;4954741;28;20492;-71
2022/02/26 11:44:38;;;;;;;1146.60;408.77;;;7.90;99.90;;;;;;4955092;28;20449;-72
2022/02/26 11:47:13;;;;;;;295.73;177.17;;;7.90;99.90;;;;;;4956302;28;20427;-72
2022/02/26 11:49:56;;;;;;;1455.77;574.57;;;7.90;99.90;;;;;;4956103;28;20896;-71
2022/02/26 11:52:50;;;;;;;1999.43;850.93;;;8.00;99.90;;;;;;4936689;28;20989;-71
2022/02/26 11:55:40;;;;;;;1999.90;841.07;;;8.00;99.90;;;;;;4949808;29;20458;-72
2022/02/26 11:58:11;;;;;;;1999.90;955.47;;;8.00;99.90;;;;;;4954486;29;20541;-72
2022/02/26 12:00:48;;;;;;;1102.63;549.40;;;8.00;99.90;;;;;;4955807;29;20995;-71
2022/02/26 12:03:28;;;;;;;902.17;440.17;;;8.00;99.90;;;;;;4955740;29;20463;-72
2022/02/26 12:06:19;;;;;;;1095.70;449.63;;;8.00;99.90;;;;;;4953727;29;20954;-72
2022/02/26 12:08:49;;;;;;;1999.90;885.60;;;8.00;99.90;;;;;;4955556;29;20933;-72
2022/02/26 12:11:32;;;;;;;527.40;254.87;;;8.10;99.90;;;;;;4955804;28;20525;-71
2022/02/26 12:14:05;;;;;;;943.53;458.47;;;8.10;99.90;;;;;;4956051;29;20470;-71
2022/02/26 12:16:36;;;;;;;1746.50;739.60;;;8.10;99.90;;;;;;4956319;29;20776;-72
2022/02/26 12:19:07;;;;;;;1999.90;917.93;;;8.20;99.90;;;;;;4954295;29;20451;-72
2022/02/26 12:21:37;;;;;;;1999.90;879.20;;;8.20;99.90;;;;;;4955428;29;20480;-72
2022/02/26 12:24:14;;;;;;;1761.73;763.37;;;8.30;99.90;;;;;;4955532;29;20442;-72
2022/02/26 12:27:01;;;;;;;1999.90;909.20;;;8.30;99.90;;;;;;4955416;29;20428;-72
2022/02/26 12:29:51;;;;;;;1999.90;902.43;;;8.30;99.90;;;;;;4950967;29;20518;-72